createdAt,value
2022-10-29T00:04:07.655Z,10.90
2022-10-29T00:09:13.514Z,10.70
2022-10-29T00:14:18.098Z,10.60
2022-10-29T00:19:21.334Z,10.70
2022-10-29T00:24:27.142Z,10.70
2022-10-29T00:29:30.370Z,10.70
2022-10-29T00:34:34.785Z,10.60
2022-10-29T00:39:39.344Z,10.50
2022-10-29T00:44:42.805Z,10.40
2022-10-29T00:49:48.801Z,10.30
2022-10-29T00:54:59.666Z,10.30
2022-10-29T01:00:03.553Z,10.30
2022-10-29T01:05:10.437Z,10.40
2022-10-29T01:10:16.781Z,10.40
2022-10-29T01:15:27.605Z,10.50
2022-10-29T01:21:05.602Z,10.60
2022-10-29T01:26:31.239Z,10.70
2022-10-29T01:31:42.243Z,10.70
2022-10-29T01:36:52.705Z,10.80
2022-10-29T01:42:03.592Z,11.00
2022-10-29T01:47:15.284Z,11.00
2022-10-29T01:52:21.467Z,11.00
2022-10-29T01:57:32.308Z,11.00
2022-10-29T02:03:01.771Z,11.10
2022-10-29T02:08:19.181Z,11.10
2022-10-29T02:13:30.901Z,11.10
2022-10-29T02:18:41.876Z,11.10
2022-10-29T02:23:45.544Z,11.00
2022-10-29T02:34:18.113Z,11.00
2022-10-29T02:39:21.359Z,11.10
2022-10-29T02:44:24.689Z,11.10
2022-10-29T02:49:29.704Z,11.20
2022-10-29T02:54:41.031Z,11.40
2022-10-29T02:59:44.263Z,11.60
2022-10-29T03:04:49.995Z,11.70
2022-10-29T03:09:59.196Z,11.70
2022-10-29T03:15:02.389Z,11.60
2022-10-29T03:20:08.345Z,11.60
2022-10-29T03:25:11.959Z,11.50
2022-10-29T03:30:17.231Z,11.50
2022-10-29T03:35:21.874Z,11.50
2022-10-29T03:40:25.431Z,11.60
2022-10-29T03:45:28.657Z,11.50
2022-10-29T03:50:33.326Z,11.50
2022-10-29T03:55:36.597Z,11.60
2022-10-29T04:00:39.926Z,11.70
2022-10-29T04:05:45.667Z,11.80
2022-10-29T04:10:51.083Z,11.80
2022-10-29T04:15:55.779Z,11.70
2022-10-29T04:31:53.948Z,11.70
2022-10-29T04:36:58.563Z,11.70
2022-10-29T04:42:02.706Z,11.60
2022-10-29T04:47:06.139Z,11.60
2022-10-29T04:52:10.852Z,11.50
2022-10-29T04:57:15.277Z,11.40
2022-10-29T05:02:18.483Z,11.30
2022-10-29T05:07:23.335Z,11.20
2022-10-29T05:12:26.669Z,11.10
2022-10-29T05:17:29.985Z,11.00
2022-10-29T05:22:34.562Z,10.90
2022-10-29T05:27:37.785Z,10.80
2022-10-29T05:32:41.189Z,10.60
2022-10-29T05:37:52.466Z,10.50
2022-10-29T05:42:56.005Z,10.30
2022-10-29T05:48:01.330Z,10.20
2022-10-29T05:53:07.649Z,10.10
2022-10-29T05:58:13.366Z,10.10
2022-10-29T06:03:18.098Z,10.00
2022-10-29T06:08:22.818Z,9.90
2022-10-29T06:13:26.005Z,9.90
2022-10-29T06:18:30.625Z,9.80
2022-10-29T06:23:36.455Z,9.80
2022-10-29T06:28:39.675Z,9.80
2022-10-29T06:33:42.969Z,9.70
2022-10-29T06:38:47.713Z,9.60
2022-10-29T06:43:52.038Z,9.70
2022-10-29T06:48:55.455Z,9.90
2022-10-29T06:54:01.178Z,10.10
2022-10-29T06:59:04.417Z,10.40
2022-10-29T07:04:07.595Z,10.60
2022-10-29T07:09:12.333Z,10.90
2022-10-29T07:14:15.929Z,11.30
2022-10-29T07:19:19.304Z,11.60
2022-10-29T07:24:24.144Z,12.00
2022-10-29T07:29:28.468Z,12.30
2022-10-29T07:34:31.690Z,12.60
2022-10-29T07:39:36.373Z,12.90
2022-10-29T07:44:39.609Z,13.20
2022-10-29T07:49:42.961Z,13.40
2022-10-29T07:54:47.564Z,13.60
2022-10-29T07:59:52.087Z,13.80
2022-10-29T08:04:55.337Z,14.00
2022-10-29T08:10:00.234Z,14.20
2022-10-29T08:15:03.665Z,14.50
2022-10-29T08:20:07.999Z,14.70
2022-10-29T08:25:13.071Z,15.00
2022-10-29T08:30:16.274Z,15.90
2022-10-29T08:35:19.523Z,17.50
2022-10-29T08:40:31.578Z,19.00
2022-10-29T08:45:41.981Z,19.70
2022-10-29T08:50:51.126Z,20.60
2022-10-29T08:55:55.949Z,21.20
2022-10-29T09:01:00.147Z,21.80
2022-10-29T09:06:12.222Z,22.40
2022-10-29T09:11:37.146Z,23.00
2022-10-29T09:16:45.251Z,23.30
2022-10-29T09:21:57.926Z,23.80
2022-10-29T09:27:10.631Z,23.40
2022-10-29T09:32:18.598Z,23.60
2022-10-29T09:37:26.557Z,23.10
2022-10-29T09:42:37.411Z,22.10
2022-10-29T09:48:34.194Z,21.50
2022-10-29T09:53:37.593Z,20.80
2022-10-29T09:58:47.048Z,20.40
2022-10-29T10:03:56.164Z,20.30
2022-10-29T10:09:04.751Z,20.20
2022-10-29T10:14:18.927Z,20.20
2022-10-29T10:19:24.897Z,20.30
2022-10-29T10:24:33.516Z,20.40
2022-10-29T10:29:38.250Z,20.60
2022-10-29T10:34:41.509Z,20.80
2022-10-29T10:39:47.933Z,20.80
2022-10-29T10:44:55.072Z,20.80
2022-10-29T10:50:13.022Z,20.80
2022-10-29T10:55:26.512Z,20.80
2022-10-29T11:00:37.224Z,20.90
2022-10-29T11:05:44.467Z,21.40
2022-10-29T11:10:54.003Z,21.60
2022-10-29T11:16:05.962Z,21.70
2022-10-29T11:21:19.300Z,21.80
2022-10-29T11:26:31.078Z,22.00
2022-10-29T11:31:42.724Z,22.00
2022-10-29T11:36:53.297Z,22.10
2022-10-29T11:41:59.878Z,22.10
2022-10-29T11:47:28.508Z,22.30
2022-10-29T11:52:39.143Z,22.40
2022-10-29T11:57:48.547Z,22.40
2022-10-29T12:03:16.988Z,22.50
2022-10-29T12:08:36.299Z,22.60
2022-10-29T12:13:49.488Z,22.60
2022-10-29T12:19:03.263Z,22.50
2022-10-29T12:24:20.599Z,22.60
2022-10-29T12:29:32.028Z,22.60
2022-10-29T12:34:43.255Z,22.70
2022-10-29T12:39:51.070Z,22.80
2022-10-29T12:45:08.238Z,22.80
2022-10-29T12:50:26.424Z,22.90
2022-10-29T12:55:30.455Z,23.10
2022-10-29T13:00:48.856Z,23.20
2022-10-29T13:05:54.780Z,23.30
2022-10-29T13:10:59.014Z,23.40
2022-10-29T13:16:06.289Z,23.40
2022-10-29T13:21:11.422Z,23.40
2022-10-29T13:26:34.761Z,23.40
2022-10-29T13:31:50.173Z,23.40
2022-10-29T13:36:54.769Z,23.40
2022-10-29T13:41:58.167Z,23.50
2022-10-29T13:47:04.621Z,23.50
2022-10-29T13:52:16.538Z,23.40
2022-10-29T13:57:23.772Z,23.50
2022-10-29T14:02:47.567Z,23.40
2022-10-29T14:07:58.456Z,23.40
2022-10-29T14:13:08.717Z,23.40
2022-10-29T14:18:26.331Z,23.50
2022-10-29T14:23:32.221Z,23.30
2022-10-29T14:28:35.431Z,23.20
2022-10-29T14:33:39.893Z,23.00
2022-10-29T14:38:49.805Z,22.90
2022-10-29T14:43:58.672Z,22.60
2022-10-29T14:49:10.597Z,22.40
2022-10-29T14:54:21.157Z,22.00
2022-10-29T14:59:29.271Z,21.60
2022-10-29T15:04:33.833Z,21.30
2022-10-29T15:09:38.549Z,20.90
2022-10-29T15:14:48.931Z,20.50
2022-10-29T15:19:57.693Z,20.10
2022-10-29T15:25:04.172Z,19.80
2022-10-29T15:30:08.601Z,19.50
2022-10-29T15:35:12.318Z,19.10
2022-10-29T15:40:19.168Z,18.70
2022-10-29T15:45:27.774Z,18.40
2022-10-29T15:50:39.730Z,18.10
2022-10-29T15:55:45.855Z,17.80
2022-10-29T16:00:49.255Z,17.60
2022-10-29T16:05:56.607Z,17.40
2022-10-29T16:11:03.156Z,17.10
2022-10-29T16:16:07.425Z,16.90
2022-10-29T16:21:13.332Z,16.70
2022-10-29T16:26:19.924Z,16.50
2022-10-29T16:31:27.157Z,16.20
2022-10-29T16:36:31.567Z,16.00
2022-10-29T16:41:36.569Z,15.80
2022-10-29T16:46:39.741Z,15.60
2022-10-29T16:51:42.916Z,15.50
2022-10-29T16:56:50.449Z,15.30
2022-10-29T17:01:53.887Z,15.30
2022-10-29T17:06:57.081Z,15.10
2022-10-29T17:12:02.196Z,15.00
2022-10-29T17:17:10.636Z,14.80
2022-10-29T17:22:16.077Z,14.80
2022-10-29T17:27:20.749Z,14.70
2022-10-29T17:32:25.174Z,14.60
2022-10-29T17:37:28.851Z,14.40
2022-10-29T17:42:33.558Z,14.40
2022-10-29T17:47:36.846Z,14.40
2022-10-29T17:52:40.528Z,14.40
2022-10-29T17:57:46.207Z,14.50
2022-10-29T18:02:50.994Z,14.60
2022-10-29T18:07:54.654Z,14.80
2022-10-29T18:12:59.706Z,14.70
2022-10-29T18:18:02.946Z,14.60
2022-10-29T18:23:06.236Z,14.60
2022-10-29T18:28:10.888Z,14.60
2022-10-29T18:33:14.197Z,14.60
2022-10-29T18:38:17.458Z,14.60
2022-10-29T18:54:20.929Z,14.60
2022-10-29T18:59:25.896Z,14.70
2022-10-29T19:04:33.051Z,14.70
2022-10-29T19:09:36.612Z,14.60
2022-10-29T19:14:41.319Z,14.40
2022-10-29T19:19:45.772Z,14.10
2022-10-29T19:24:48.946Z,14.00
2022-10-29T19:29:53.915Z,13.80
2022-10-29T19:34:57.203Z,13.70
2022-10-29T19:40:00.568Z,13.60
2022-10-29T19:45:05.456Z,13.60
2022-10-29T19:50:10.143Z,13.60
2022-10-29T19:55:14.607Z,13.60
2022-10-29T20:00:20.025Z,13.70
2022-10-29T20:05:23.276Z,13.70
2022-10-29T20:10:26.604Z,13.70
2022-10-29T20:15:31.804Z,13.80
2022-10-29T20:20:35.074Z,13.70
2022-10-29T20:25:40.460Z,13.60
2022-10-29T20:30:45.278Z,13.50
2022-10-29T20:35:48.913Z,13.40
2022-10-29T20:40:52.630Z,13.30
2022-10-29T20:46:02.239Z,13.30
2022-10-29T20:51:05.963Z,13.20
2022-10-29T20:56:11.698Z,13.30
2022-10-29T21:01:22.988Z,13.20
2022-10-29T21:06:26.734Z,13.10
2022-10-29T21:11:29.977Z,13.00
2022-10-29T21:16:34.746Z,12.90
2022-10-29T21:21:38.106Z,13.00
2022-10-29T21:26:41.316Z,13.00
2022-10-29T21:31:50.641Z,12.80
2022-10-29T21:36:55.106Z,12.70
2022-10-29T21:41:58.331Z,12.60
2022-10-29T21:47:21.800Z,12.50
2022-10-29T21:52:25.160Z,12.50
2022-10-29T21:57:29.546Z,12.50
2022-10-29T22:02:35.079Z,12.40
2022-10-29T22:07:38.584Z,12.40
2022-10-29T22:12:47.789Z,12.50
2022-10-29T22:17:52.435Z,12.50
2022-10-29T22:22:55.937Z,12.50
2022-10-29T22:27:59.690Z,12.40
2022-10-29T22:33:04.907Z,12.40
2022-10-29T22:38:08.185Z,12.30
2022-10-29T22:43:12.010Z,12.10
2022-10-29T22:48:16.653Z,12.00
2022-10-29T22:53:19.857Z,11.90
2022-10-29T22:58:24.374Z,11.80
2022-10-29T23:03:29.090Z,11.90
2022-10-29T23:08:33.878Z,11.90
2022-10-29T23:13:37.130Z,11.90
2022-10-29T23:18:57.521Z,11.80
2022-10-29T23:24:00.943Z,11.80
2022-10-29T23:29:04.588Z,11.70
2022-10-29T23:34:12.710Z,11.70
2022-10-29T23:39:16.038Z,11.70
2022-10-29T23:44:19.303Z,11.80
2022-10-29T23:49:24.003Z,11.60
2022-10-29T23:54:27.265Z,11.60
2022-10-29T23:59:32.604Z,11.50
